Skip Navigation LinksHome page > Weather > Current weather Skip Navigation Links

Current Weather

Nantucket Memorial, Nantucket, Mass.

For information only: do not use for flight planning or navigation.
Latest weather
Observation time Tuesday, September 28, 2021 6:53 AM EDT
Local time Tuesday, September 28, 2021 7:10 AM EDT
Flight conditions Visual Meteorological Conditions
Winds
Wind direction Southwest (230°)
Wind speed 14 mph
Visibility 8 mi.
Sky condition
Ceiling unlimited
Sky clear
Temperature 71°F
Dewpoint 66°F
Altimeter 29.85 in.Hg
Derived measurements
Relative humidity 84%
Density altitude 1208 ft.
Sea-level pressure 29.85 in.Hg
Remarks
Fully automated report.
Automated weather observing station with precipitation discriminator.
METAR KACK 281053Z AUTO 23012KT 8SM CLR 22/19 A2985 RMK AO2 SLP108 T02170189

Settings

Location code

InnerDrive.Weather 4.0.6770.0 Release CLR 4.0.30319.42000
Copyright ©2018 Inner Drive Technology. All rights reserved. Portions Copyright ©1986-2018 David Braverman.

Find weather

Site navigation


Skip Navigation Links

Place info

Page info

PayPal - The safer, easier way to pay online!

Return home.

Copyright ©2021 Inner Drive Technology. Purveyors of fine, hand-crafted computer software. Page printed 2021-09-28T11:10:58 UTC.